sensor_id;sensor_type;location;lat;lon;timestamp;P1;durP1;ratioP1;P2;durP2;ratioP2
1106;SDS011;540;49.448;8.612;2022-09-01T00:02:27;3.97;;;2.85;;
1106;SDS011;540;49.448;8.612;2022-09-01T00:04:56;2.67;;;2.45;;
1106;SDS011;540;49.448;8.612;2022-09-01T00:07:25;4.47;;;2.58;;
1106;SDS011;540;49.448;8.612;2022-09-01T00:09:56;5.53;;;2.72;;
1106;SDS011;540;49.448;8.612;2022-09-01T00:12:24;5.93;;;3.20;;
1106;SDS011;540;49.448;8.612;2022-09-01T00:14:52;4.32;;;3.00;;
1106;SDS011;540;49.448;8.612;2022-09-01T00:17:20;4.82;;;2.72;;
1106;SDS011;540;49.448;8.612;2022-09-01T00:19:48;4.97;;;3.50;;
1106;SDS011;540;49.448;8.612;2022-09-01T00:22:16;4.05;;;3.10;;
1106;SDS011;540;49.448;8.612;2022-09-01T00:24:44;6.35;;;3.20;;
1106;SDS011;540;49.448;8.612;2022-09-01T00:27:13;3.58;;;2.58;;
1106;SDS011;540;49.448;8.612;2022-09-01T00:29:43;3.33;;;2.85;;
1106;SDS011;540;49.448;8.612;2022-09-01T00:32:11;3.78;;;3.22;;
1106;SDS011;540;49.448;8.612;2022-09-01T00:34:39;5.53;;;3.65;;
1106;SDS011;540;49.448;8.612;2022-09-01T00:37:07;3.47;;;3.17;;
1106;SDS011;540;49.448;8.612;2022-09-01T00:39:34;4.82;;;3.30;;
1106;SDS011;540;49.448;8.612;2022-09-01T00:42:02;4.78;;;3.45;;
1106;SDS011;540;49.448;8.612;2022-09-01T00:44:32;6.32;;;3.42;;
1106;SDS011;540;49.448;8.612;2022-09-01T00:47:04;7.30;;;4.10;;
1106;SDS011;540;49.448;8.612;2022-09-01T00:49:34;4.25;;;3.72;;
1106;SDS011;540;49.448;8.612;2022-09-01T00:52:06;4.38;;;3.63;;
1106;SDS011;540;49.448;8.612;2022-09-01T00:54:38;6.15;;;3.88;;
1106;SDS011;540;49.448;8.612;2022-09-01T00:57:09;4.28;;;3.75;;
1106;SDS011;540;49.448;8.612;2022-09-01T00:59:41;7.97;;;4.68;;
1106;SDS011;540;49.448;8.612;2022-09-01T01:02:14;6.70;;;4.60;;
1106;SDS011;540;49.448;8.612;2022-09-01T01:04:42;6.82;;;4.22;;
1106;SDS011;540;49.448;8.612;2022-09-01T01:07:11;5.70;;;4.15;;
1106;SDS011;540;49.448;8.612;2022-09-01T01:09:41;6.13;;;5.00;;
1106;SDS011;540;49.448;8.612;2022-09-01T01:12:11;6.25;;;4.95;;
1106;SDS011;540;49.448;8.612;2022-09-01T01:14:45;5.10;;;4.18;;
1106;SDS011;540;49.448;8.612;2022-09-01T01:17:16;7.57;;;4.32;;
1106;SDS011;540;49.448;8.612;2022-09-01T01:19:45;5.00;;;4.45;;
1106;SDS011;540;49.448;8.612;2022-09-01T01:22:36;5.78;;;4.80;;
1106;SDS011;540;49.448;8.612;2022-09-01T01:25:29;6.85;;;5.07;;
1106;SDS011;540;49.448;8.612;2022-09-01T01:28:04;8.23;;;4.53;;
1106;SDS011;540;49.448;8.612;2022-09-01T01:30:34;5.10;;;4.25;;
1106;SDS011;540;49.448;8.612;2022-09-01T01:33:02;6.80;;;4.32;;
1106;SDS011;540;49.448;8.612;2022-09-01T01:35:30;5.82;;;4.88;;
1106;SDS011;540;49.448;8.612;2022-09-01T01:38:00;7.40;;;4.75;;
1106;SDS011;540;49.448;8.612;2022-09-01T01:40:34;7.38;;;4.35;;
1106;SDS011;540;49.448;8.612;2022-09-01T01:43:03;7.20;;;4.28;;
1106;SDS011;540;49.448;8.612;2022-09-01T01:45:32;8.93;;;4.30;;
1106;SDS011;540;49.448;8.612;2022-09-01T01:48:00;7.07;;;4.80;;
1106;SDS011;540;49.448;8.612;2022-09-01T01:50:31;5.15;;;4.00;;
1106;SDS011;540;49.448;8.612;2022-09-01T01:53:01;5.60;;;4.30;;
1106;SDS011;540;49.448;8.612;2022-09-01T01:55:38;5.90;;;3.88;;
1106;SDS011;540;49.448;8.612;2022-09-01T01:58:06;7.88;;;5.35;;
1106;SDS011;540;49.448;8.612;2022-09-01T02:00:37;7.25;;;4.35;;
1106;SDS011;540;49.448;8.612;2022-09-01T02:03:07;7.65;;;4.28;;
1106;SDS011;540;49.448;8.612;2022-09-01T02:05:38;5.95;;;4.80;;
1106;SDS011;540;49.448;8.612;2022-09-01T02:08:06;6.75;;;4.63;;
1106;SDS011;540;49.448;8.612;2022-09-01T02:10:37;5.75;;;4.45;;
1106;SDS011;540;49.448;8.612;2022-09-01T02:13:09;5.63;;;4.68;;
1106;SDS011;540;49.448;8.612;2022-09-01T02:15:43;6.47;;;4.78;;
1106;SDS011;540;49.448;8.612;2022-09-01T02:18:13;6.82;;;5.50;;
1106;SDS011;540;49.448;8.612;2022-09-01T02:20:43;5.80;;;5.03;;
1106;SDS011;540;49.448;8.612;2022-09-01T02:23:12;6.13;;;4.13;;
1106;SDS011;540;49.448;8.612;2022-09-01T02:25:46;6.93;;;4.75;;
1106;SDS011;540;49.448;8.612;2022-09-01T02:28:34;7.32;;;4.47;;
1106;SDS011;540;49.448;8.612;2022-09-01T02:31:05;8.55;;;4.03;;
1106;SDS011;540;49.448;8.612;2022-09-01T02:33:34;9.27;;;4.45;;
1106;SDS011;540;49.448;8.612;2022-09-01T02:36:03;5.97;;;4.47;;
1106;SDS011;540;49.448;8.612;2022-09-01T02:38:33;6.40;;;4.00;;
1106;SDS011;540;49.448;8.612;2022-09-01T02:41:05;4.20;;;3.53;;
1106;SDS011;540;49.448;8.612;2022-09-01T02:43:33;6.32;;;4.45;;
1106;SDS011;540;49.448;8.612;2022-09-01T02:46:03;5.10;;;4.38;;
1106;SDS011;540;49.448;8.612;2022-09-01T02:48:33;4.65;;;4.03;;
1106;SDS011;540;49.448;8.612;2022-09-01T02:51:04;4.85;;;4.32;;
1106;SDS011;540;49.448;8.612;2022-09-01T02:53:34;4.38;;;3.97;;
1106;SDS011;540;49.448;8.612;2022-09-01T02:56:06;5.22;;;4.43;;
1106;SDS011;540;49.448;8.612;2022-09-01T02:58:39;5.00;;;4.10;;
1106;SDS011;540;49.448;8.612;2022-09-01T03:01:12;5.32;;;4.28;;
1106;SDS011;540;49.448;8.612;2022-09-01T03:03:46;6.13;;;4.90;;
1106;SDS011;540;49.448;8.612;2022-09-01T03:06:14;6.53;;;4.30;;
1106;SDS011;540;49.448;8.612;2022-09-01T03:08:44;8.10;;;4.75;;
1106;SDS011;540;49.448;8.612;2022-09-01T03:11:14;11.38;;;6.72;;
1106;SDS011;540;49.448;8.612;2022-09-01T03:13:42;7.93;;;4.95;;
1106;SDS011;540;49.448;8.612;2022-09-01T03:16:10;6.18;;;5.18;;
1106;SDS011;540;49.448;8.612;2022-09-01T03:18:38;7.45;;;4.68;;
1106;SDS011;540;49.448;8.612;2022-09-01T03:21:08;7.07;;;4.70;;
1106;SDS011;540;49.448;8.612;2022-09-01T03:23:40;7.90;;;4.65;;
1106;SDS011;540;49.448;8.612;2022-09-01T03:26:08;6.45;;;5.18;;
1106;SDS011;540;49.448;8.612;2022-09-01T03:28:37;6.15;;;4.30;;
1106;SDS011;540;49.448;8.612;2022-09-01T03:31:05;4.75;;;4.25;;
1106;SDS011;540;49.448;8.612;2022-09-01T03:33:34;8.68;;;5.18;;
1106;SDS011;540;49.448;8.612;2022-09-01T03:36:02;8.95;;;4.63;;
1106;SDS011;540;49.448;8.612;2022-09-01T03:38:40;5.25;;;4.40;;
1106;SDS011;540;49.448;8.612;2022-09-01T03:41:09;6.95;;;5.43;;
1106;SDS011;540;49.448;8.612;2022-09-01T03:43:39;5.97;;;4.13;;
1106;SDS011;540;49.448;8.612;2022-09-01T03:46:12;5.80;;;4.65;;
1106;SDS011;540;49.448;8.612;2022-09-01T03:48:45;6.43;;;4.72;;
1106;SDS011;540;49.448;8.612;2022-09-01T03:51:16;6.57;;;4.35;;
1106;SDS011;540;49.448;8.612;2022-09-01T03:53:45;7.45;;;4.97;;
1106;SDS011;540;49.448;8.612;2022-09-01T03:56:13;8.77;;;4.32;;
1106;SDS011;540;49.448;8.612;2022-09-01T03:58:43;6.95;;;5.00;;
1106;SDS011;540;49.448;8.612;2022-09-01T04:01:12;7.05;;;5.45;;
1106;SDS011;540;49.448;8.612;2022-09-01T04:03:42;9.57;;;5.40;;
1106;SDS011;540;49.448;8.612;2022-09-01T04:06:14;7.90;;;5.47;;
1106;SDS011;540;49.448;8.612;2022-09-01T04:08:45;6.28;;;5.18;;
1106;SDS011;540;49.448;8.612;2022-09-01T04:11:14;7.70;;;5.57;;
1106;SDS011;540;49.448;8.612;2022-09-01T04:13:45;10.88;;;5.55;;
1106;SDS011;540;49.448;8.612;2022-09-01T04:16:16;9.68;;;4.80;;
1106;SDS011;540;49.448;8.612;2022-09-01T04:19:00;6.47;;;5.03;;
1106;SDS011;540;49.448;8.612;2022-09-01T04:21:34;6.35;;;4.32;;
1106;SDS011;540;49.448;8.612;2022-09-01T04:24:03;8.27;;;5.22;;
1106;SDS011;540;49.448;8.612;2022-09-01T04:26:31;8.88;;;6.53;;
1106;SDS011;540;49.448;8.612;2022-09-01T04:29:00;5.65;;;4.63;;
1106;SDS011;540;49.448;8.612;2022-09-01T04:31:28;7.65;;;5.55;;
1106;SDS011;540;49.448;8.612;2022-09-01T04:33:56;7.82;;;4.78;;
1106;SDS011;540;49.448;8.612;2022-09-01T04:36:26;6.15;;;4.68;;
1106;SDS011;540;49.448;8.612;2022-09-01T04:38:56;6.53;;;4.53;;
1106;SDS011;540;49.448;8.612;2022-09-01T04:41:26;6.72;;;4.50;;
1106;SDS011;540;49.448;8.612;2022-09-01T04:43:57;6.78;;;4.90;;
1106;SDS011;540;49.448;8.612;2022-09-01T04:46:32;8.05;;;5.28;;
1106;SDS011;540;49.448;8.612;2022-09-01T04:49:01;5.90;;;5.30;;
1106;SDS011;540;49.448;8.612;2022-09-01T04:51:38;8.77;;;5.75;;
1106;SDS011;540;49.448;8.612;2022-09-01T04:54:07;5.50;;;4.65;;
1106;SDS011;540;49.448;8.612;2022-09-01T04:56:37;8.13;;;5.30;;
1106;SDS011;540;49.448;8.612;2022-09-01T04:59:06;5.82;;;4.47;;
1106;SDS011;540;49.448;8.612;2022-09-01T05:01:38;7.93;;;5.28;;
1106;SDS011;540;49.448;8.612;2022-09-01T05:04:10;8.70;;;4.78;;
1106;SDS011;540;49.448;8.612;2022-09-01T05:06:40;7.57;;;5.38;;
1106;SDS011;540;49.448;8.612;2022-09-01T05:09:09;9.88;;;5.40;;
1106;SDS011;540;49.448;8.612;2022-09-01T05:11:37;7.72;;;5.35;;
1106;SDS011;540;49.448;8.612;2022-09-01T05:14:06;6.82;;;5.07;;
1106;SDS011;540;49.448;8.612;2022-09-01T05:16:34;7.25;;;5.80;;
1106;SDS011;540;49.448;8.612;2022-09-01T05:19:07;9.45;;;5.90;;
1106;SDS011;540;49.448;8.612;2022-09-01T05:21:40;9.75;;;6.15;;
1106;SDS011;540;49.448;8.612;2022-09-01T05:24:11;7.35;;;5.30;;
1106;SDS011;540;49.448;8.612;2022-09-01T05:26:41;5.88;;;5.20;;
1106;SDS011;540;49.448;8.612;2022-09-01T05:29:12;8.63;;;5.95;;
1106;SDS011;540;49.448;8.612;2022-09-01T05:31:43;7.07;;;5.20;;
1106;SDS011;540;49.448;8.612;2022-09-01T05:34:17;6.07;;;5.15;;
1106;SDS011;540;49.448;8.612;2022-09-01T05:36:51;7.03;;;5.13;;
1106;SDS011;540;49.448;8.612;2022-09-01T05:39:21;8.27;;;6.38;;
1106;SDS011;540;49.448;8.612;2022-09-01T05:41:48;8.77;;;6.20;;
1106;SDS011;540;49.448;8.612;2022-09-01T05:44:19;9.45;;;5.53;;
1106;SDS011;540;49.448;8.612;2022-09-01T05:46:49;7.90;;;5.22;;
1106;SDS011;540;49.448;8.612;2022-09-01T05:49:19;11.30;;;4.85;;
1106;SDS011;540;49.448;8.612;2022-09-01T05:51:49;5.28;;;4.43;;
1106;SDS011;540;49.448;8.612;2022-09-01T05:54:19;5.55;;;4.85;;
1106;SDS011;540;49.448;8.612;2022-09-01T05:56:50;6.68;;;5.82;;
1106;SDS011;540;49.448;8.612;2022-09-01T05:59:18;7.78;;;5.70;;
1106;SDS011;540;49.448;8.612;2022-09-01T06:01:50;9.52;;;5.47;;
1106;SDS011;540;49.448;8.612;2022-09-01T06:04:21;8.60;;;4.97;;
1106;SDS011;540;49.448;8.612;2022-09-01T06:06:51;7.47;;;4.88;;
1106;SDS011;540;49.448;8.612;2022-09-01T06:09:31;10.65;;;5.55;;
1106;SDS011;540;49.448;8.612;2022-09-01T06:11:59;6.30;;;5.13;;
1106;SDS011;540;49.448;8.612;2022-09-01T06:14:28;9.10;;;5.70;;
1106;SDS011;540;49.448;8.612;2022-09-01T06:16:55;11.40;;;5.70;;
1106;SDS011;540;49.448;8.612;2022-09-01T06:19:25;9.77;;;4.97;;
1106;SDS011;540;49.448;8.612;2022-09-01T06:21:53;7.60;;;5.00;;
1106;SDS011;540;49.448;8.612;2022-09-01T06:24:21;9.02;;;5.50;;
1106;SDS011;540;49.448;8.612;2022-09-01T06:26:49;8.57;;;5.30;;
1106;SDS011;540;49.448;8.612;2022-09-01T06:29:19;12.30;;;5.43;;
1106;SDS011;540;49.448;8.612;2022-09-01T06:31:46;9.82;;;5.90;;
1106;SDS011;540;49.448;8.612;2022-09-01T06:34:17;7.15;;;4.90;;
1106;SDS011;540;49.448;8.612;2022-09-01T06:36:47;6.45;;;5.35;;
1106;SDS011;540;49.448;8.612;2022-09-01T06:39:16;8.30;;;5.25;;
1106;SDS011;540;49.448;8.612;2022-09-01T06:41:45;8.60;;;5.47;;
1106;SDS011;540;49.448;8.612;2022-09-01T06:44:18;6.47;;;4.55;;
1106;SDS011;540;49.448;8.612;2022-09-01T06:46:48;6.88;;;4.22;;
1106;SDS011;540;49.448;8.612;2022-09-01T06:49:17;5.72;;;4.72;;
1106;SDS011;540;49.448;8.612;2022-09-01T06:51:47;7.95;;;5.97;;
1106;SDS011;540;49.448;8.612;2022-09-01T06:54:17;7.18;;;5.88;;
1106;SDS011;540;49.448;8.612;2022-09-01T06:56:46;6.45;;;5.30;;
1106;SDS011;540;49.448;8.612;2022-09-01T06:59:17;11.40;;;5.50;;
1106;SDS011;540;49.448;8.612;2022-09-01T07:01:46;8.20;;;4.53;;
1106;SDS011;540;49.448;8.612;2022-09-01T07:04:18;7.07;;;3.72;;
1106;SDS011;540;49.448;8.612;2022-09-01T07:06:48;6.32;;;4.75;;
1106;SDS011;540;49.448;8.612;2022-09-01T07:09:37;5.20;;;4.20;;
1106;SDS011;540;49.448;8.612;2022-09-01T07:12:15;9.15;;;4.50;;
1106;SDS011;540;49.448;8.612;2022-09-01T07:14:53;7.80;;;4.97;;
1106;SDS011;540;49.448;8.612;2022-09-01T07:17:42;7.80;;;4.90;;
1106;SDS011;540;49.448;8.612;2022-09-01T07:20:16;5.50;;;4.50;;
1106;SDS011;540;49.448;8.612;2022-09-01T07:22:51;4.65;;;4.25;;
1106;SDS011;540;49.448;8.612;2022-09-01T07:25:37;6.05;;;4.38;;
1106;SDS011;540;49.448;8.612;2022-09-01T07:28:27;5.32;;;4.30;;
1106;SDS011;540;49.448;8.612;2022-09-01T07:31:06;6.13;;;4.90;;
1106;SDS011;540;49.448;8.612;2022-09-01T07:33:55;5.82;;;4.43;;
1106;SDS011;540;49.448;8.612;2022-09-01T07:36:45;4.38;;;3.90;;
1106;SDS011;540;49.448;8.612;2022-09-01T07:39:36;12.77;;;4.35;;
1106;SDS011;540;49.448;8.612;2022-09-01T07:42:20;6.63;;;4.75;;
1106;SDS011;540;49.448;8.612;2022-09-01T07:45:10;5.55;;;4.00;;
1106;SDS011;540;49.448;8.612;2022-09-01T07:47:54;5.22;;;4.72;;
1106;SDS011;540;49.448;8.612;2022-09-01T07:50:25;7.18;;;4.78;;
1106;SDS011;540;49.448;8.612;2022-09-01T07:53:15;6.93;;;4.05;;
1106;SDS011;540;49.448;8.612;2022-09-01T07:55:46;4.90;;;4.40;;
1106;SDS011;540;49.448;8.612;2022-09-01T07:58:16;4.68;;;4.13;;
1106;SDS011;540;49.448;8.612;2022-09-01T08:00:44;4.47;;;3.38;;
1106;SDS011;540;49.448;8.612;2022-09-01T08:03:14;9.90;;;4.70;;
1106;SDS011;540;49.448;8.612;2022-09-01T08:05:44;7.93;;;5.85;;
1106;SDS011;540;49.448;8.612;2022-09-01T08:08:12;5.15;;;4.28;;
1106;SDS011;540;49.448;8.612;2022-09-01T08:10:45;9.38;;;4.78;;
1106;SDS011;540;49.448;8.612;2022-09-01T08:13:15;7.75;;;4.63;;
1106;SDS011;540;49.448;8.612;2022-09-01T08:15:47;8.27;;;4.40;;
1106;SDS011;540;49.448;8.612;2022-09-01T08:18:35;6.80;;;4.85;;
1106;SDS011;540;49.448;8.612;2022-09-01T08:21:19;4.90;;;4.05;;
1106;SDS011;540;49.448;8.612;2022-09-01T08:23:48;5.75;;;4.20;;
1106;SDS011;540;49.448;8.612;2022-09-01T08:26:21;5.82;;;4.47;;
1106;SDS011;540;49.448;8.612;2022-09-01T08:28:50;7.88;;;5.03;;
1106;SDS011;540;49.448;8.612;2022-09-01T08:31:21;5.32;;;4.80;;
1106;SDS011;540;49.448;8.612;2022-09-01T08:33:55;5.50;;;5.00;;
1106;SDS011;540;49.448;8.612;2022-09-01T08:36:23;5.10;;;4.35;;
1106;SDS011;540;49.448;8.612;2022-09-01T08:38:51;5.85;;;4.90;;
1106;SDS011;540;49.448;8.612;2022-09-01T08:41:23;6.13;;;3.85;;
1106;SDS011;540;49.448;8.612;2022-09-01T08:44:15;5.18;;;4.68;;
1106;SDS011;540;49.448;8.612;2022-09-01T08:46:51;4.40;;;4.00;;
1106;SDS011;540;49.448;8.612;2022-09-01T08:49:24;3.95;;;3.05;;
1106;SDS011;540;49.448;8.612;2022-09-01T08:51:56;4.43;;;3.30;;
1106;SDS011;540;49.448;8.612;2022-09-01T08:54:31;3.30;;;3.00;;
1106;SDS011;540;49.448;8.612;2022-09-01T08:57:13;3.30;;;3.00;;
1106;SDS011;540;49.448;8.612;2022-09-01T08:59:44;3.70;;;3.33;;
1106;SDS011;540;49.448;8.612;2022-09-01T09:02:17;3.25;;;2.95;;
1106;SDS011;540;49.448;8.612;2022-09-01T09:04:56;3.40;;;3.13;;
1106;SDS011;540;49.448;8.612;2022-09-01T09:07:48;2.95;;;2.42;;
1106;SDS011;540;49.448;8.612;2022-09-01T09:10:34;7.10;;;3.33;;
1106;SDS011;540;49.448;8.612;2022-09-01T09:13:10;3.75;;;3.03;;
1106;SDS011;540;49.448;8.612;2022-09-01T09:15:49;5.30;;;3.10;;
1106;SDS011;540;49.448;8.612;2022-09-01T09:18:34;3.45;;;2.92;;
1106;SDS011;540;49.448;8.612;2022-09-01T09:21:21;6.80;;;3.08;;
1106;SDS011;540;49.448;8.612;2022-09-01T09:23:57;3.27;;;2.97;;
1106;SDS011;540;49.448;8.612;2022-09-01T09:26:29;8.40;;;2.95;;
1106;SDS011;540;49.448;8.612;2022-09-01T09:29:14;4.30;;;2.85;;
1106;SDS011;540;49.448;8.612;2022-09-01T09:31:43;5.22;;;2.75;;
1106;SDS011;540;49.448;8.612;2022-09-01T09:34:16;2.85;;;2.55;;
1106;SDS011;540;49.448;8.612;2022-09-01T09:36:55;3.22;;;2.85;;
1106;SDS011;540;49.448;8.612;2022-09-01T09:39:22;7.07;;;3.10;;
1106;SDS011;540;49.448;8.612;2022-09-01T09:42:00;3.95;;;2.60;;
1106;SDS011;540;49.448;8.612;2022-09-01T09:44:38;4.55;;;4.15;;
1106;SDS011;540;49.448;8.612;2022-09-01T09:47:10;3.22;;;2.30;;
1106;SDS011;540;49.448;8.612;2022-09-01T09:50:11;2.67;;;2.47;;
1106;SDS011;540;49.448;8.612;2022-09-01T09:52:48;7.22;;;2.80;;
1106;SDS011;540;49.448;8.612;2022-09-01T09:55:19;4.72;;;2.75;;
1106;SDS011;540;49.448;8.612;2022-09-01T09:57:50;7.80;;;2.35;;
1106;SDS011;540;49.448;8.612;2022-09-01T10:00:23;5.43;;;2.20;;
1106;SDS011;540;49.448;8.612;2022-09-01T10:02:54;2.67;;;2.47;;
1106;SDS011;540;49.448;8.612;2022-09-01T10:05:35;2.95;;;2.55;;
1106;SDS011;540;49.448;8.612;2022-09-01T10:08:07;2.53;;;2.33;;
1106;SDS011;540;49.448;8.612;2022-09-01T10:10:38;2.95;;;2.45;;
1106;SDS011;540;49.448;8.612;2022-09-01T10:13:09;4.15;;;2.53;;
1106;SDS011;540;49.448;8.612;2022-09-01T10:15:42;3.45;;;2.50;;
1106;SDS011;540;49.448;8.612;2022-09-01T10:18:16;3.40;;;2.47;;
1106;SDS011;540;49.448;8.612;2022-09-01T10:20:55;2.63;;;2.17;;
1106;SDS011;540;49.448;8.612;2022-09-01T10:23:27;5.43;;;2.90;;
1106;SDS011;540;49.448;8.612;2022-09-01T10:25:58;3.63;;;2.33;;
1106;SDS011;540;49.448;8.612;2022-09-01T10:28:34;2.80;;;2.20;;
1106;SDS011;540;49.448;8.612;2022-09-01T10:31:17;4.18;;;2.30;;
1106;SDS011;540;49.448;8.612;2022-09-01T10:33:46;2.30;;;2.10;;
1106;SDS011;540;49.448;8.612;2022-09-01T10:36:15;5.97;;;2.55;;
1106;SDS011;540;49.448;8.612;2022-09-01T10:38:45;2.33;;;2.13;;
1106;SDS011;540;49.448;8.612;2022-09-01T10:44:11;3.50;;;2.50;;
1106;SDS011;540;49.448;8.612;2022-09-01T10:46:47;2.60;;;2.40;;
1106;SDS011;540;49.448;8.612;2022-09-01T10:55:24;2.03;;;1.85;;
1106;SDS011;540;49.448;8.612;2022-09-01T10:58:15;2.95;;;2.40;;
1106;SDS011;540;49.448;8.612;2022-09-01T11:07:42;3.10;;;2.00;;
1106;SDS011;540;49.448;8.612;2022-09-01T11:10:45;2.63;;;2.42;;
1106;SDS011;540;49.448;8.612;2022-09-01T11:13:29;2.60;;;2.35;;
1106;SDS011;540;49.448;8.612;2022-09-01T11:19:21;2.63;;;2.10;;
1106;SDS011;540;49.448;8.612;2022-09-01T11:25:06;3.22;;;2.15;;
1106;SDS011;540;49.448;8.612;2022-09-01T11:27:56;2.80;;;2.60;;
1106;SDS011;540;49.448;8.612;2022-09-01T11:30:58;2.20;;;2.00;;
1106;SDS011;540;49.448;8.612;2022-09-01T11:36:32;2.35;;;2.10;;
1106;SDS011;540;49.448;8.612;2022-09-01T11:39:06;3.30;;;2.55;;
1106;SDS011;540;49.448;8.612;2022-09-01T11:41:49;5.03;;;1.95;;
1106;SDS011;540;49.448;8.612;2022-09-01T11:44:27;2.55;;;2.30;;
1106;SDS011;540;49.448;8.612;2022-09-01T11:47:01;2.38;;;2.17;;
1106;SDS011;540;49.448;8.612;2022-09-01T11:49:36;4.10;;;2.42;;
1106;SDS011;540;49.448;8.612;2022-09-01T11:52:06;3.97;;;2.58;;
1106;SDS011;540;49.448;8.612;2022-09-01T11:54:43;2.80;;;2.35;;
1106;SDS011;540;49.448;8.612;2022-09-01T11:57:15;3.40;;;2.30;;
1106;SDS011;540;49.448;8.612;2022-09-01T11:59:44;2.17;;;1.98;;
1106;SDS011;540;49.448;8.612;2022-09-01T12:02:16;3.05;;;2.55;;
1106;SDS011;540;49.448;8.612;2022-09-01T12:04:44;2.55;;;2.30;;
1106;SDS011;540;49.448;8.612;2022-09-01T12:07:13;2.53;;;2.33;;
1106;SDS011;540;49.448;8.612;2022-09-01T12:09:53;2.10;;;1.90;;
1106;SDS011;540;49.448;8.612;2022-09-01T12:12:29;4.65;;;2.72;;
1106;SDS011;540;49.448;8.612;2022-09-01T12:15:00;4.25;;;2.30;;
1106;SDS011;540;49.448;8.612;2022-09-01T12:17:31;6.60;;;2.42;;
1106;SDS011;540;49.448;8.612;2022-09-01T12:20:20;2.53;;;2.33;;
1106;SDS011;540;49.448;8.612;2022-09-01T12:22:55;4.80;;;2.40;;
1106;SDS011;540;49.448;8.612;2022-09-01T12:25:25;2.20;;;2.00;;
1106;SDS011;540;49.448;8.612;2022-09-01T12:27:56;3.15;;;2.72;;
1106;SDS011;540;49.448;8.612;2022-09-01T12:30:26;2.55;;;2.35;;
1106;SDS011;540;49.448;8.612;2022-09-01T12:32:54;3.88;;;2.40;;
1106;SDS011;540;49.448;8.612;2022-09-01T12:35:43;2.78;;;2.40;;
1106;SDS011;540;49.448;8.612;2022-09-01T12:38:17;2.20;;;2.00;;
1106;SDS011;540;49.448;8.612;2022-09-01T12:40:50;2.22;;;2.03;;
1106;SDS011;540;49.448;8.612;2022-09-01T12:43:27;2.42;;;2.22;;
1106;SDS011;540;49.448;8.612;2022-09-01T12:45:59;3.15;;;2.45;;
1106;SDS011;540;49.448;8.612;2022-09-01T12:48:30;2.63;;;2.42;;
1106;SDS011;540;49.448;8.612;2022-09-01T12:50:59;2.55;;;2.35;;
1106;SDS011;540;49.448;8.612;2022-09-01T12:53:29;5.90;;;2.70;;
1106;SDS011;540;49.448;8.612;2022-09-01T12:56:14;2.72;;;2.17;;
1106;SDS011;540;49.448;8.612;2022-09-01T12:58:46;2.67;;;2.10;;
1106;SDS011;540;49.448;8.612;2022-09-01T13:01:26;2.97;;;2.38;;
1106;SDS011;540;49.448;8.612;2022-09-01T13:04:09;3.42;;;2.50;;
1106;SDS011;540;49.448;8.612;2022-09-01T13:06:53;3.10;;;2.83;;
1106;SDS011;540;49.448;8.612;2022-09-01T13:09:23;4.70;;;2.33;;
1106;SDS011;540;49.448;8.612;2022-09-01T13:11:52;3.00;;;2.58;;
1106;SDS011;540;49.448;8.612;2022-09-01T13:14:35;2.55;;;2.35;;
1106;SDS011;540;49.448;8.612;2022-09-01T13:17:03;3.47;;;2.45;;
1106;SDS011;540;49.448;8.612;2022-09-01T13:19:39;4.65;;;3.15;;
1106;SDS011;540;49.448;8.612;2022-09-01T13:22:08;2.92;;;2.28;;
1106;SDS011;540;49.448;8.612;2022-09-01T13:24:36;14.65;;;2.40;;
1106;SDS011;540;49.448;8.612;2022-09-01T13:27:06;3.17;;;2.60;;
1106;SDS011;540;49.448;8.612;2022-09-01T13:29:52;4.60;;;2.15;;
1106;SDS011;540;49.448;8.612;2022-09-01T13:32:21;2.80;;;2.30;;
1106;SDS011;540;49.448;8.612;2022-09-01T13:34:50;4.90;;;2.80;;
1106;SDS011;540;49.448;8.612;2022-09-01T13:37:19;3.92;;;2.88;;
1106;SDS011;540;49.448;8.612;2022-09-01T13:39:48;3.10;;;2.70;;
1106;SDS011;540;49.448;8.612;2022-09-01T13:42:17;2.30;;;2.10;;
1106;SDS011;540;49.448;8.612;2022-09-01T13:44:45;3.08;;;2.45;;
1106;SDS011;540;49.448;8.612;2022-09-01T13:47:16;3.78;;;2.50;;
1106;SDS011;540;49.448;8.612;2022-09-01T13:49:59;3.30;;;2.90;;
1106;SDS011;540;49.448;8.612;2022-09-01T13:52:33;2.70;;;2.30;;
1106;SDS011;540;49.448;8.612;2022-09-01T13:55:02;2.50;;;2.30;;
1106;SDS011;540;49.448;8.612;2022-09-01T13:57:32;3.40;;;2.33;;
1106;SDS011;540;49.448;8.612;2022-09-01T14:00:03;3.15;;;2.50;;
1106;SDS011;540;49.448;8.612;2022-09-01T14:02:33;3.88;;;2.20;;
1106;SDS011;540;49.448;8.612;2022-09-01T14:05:02;2.95;;;2.13;;
1106;SDS011;540;49.448;8.612;2022-09-01T14:07:30;2.97;;;2.20;;
1106;SDS011;540;49.448;8.612;2022-09-01T14:09:58;2.70;;;2.17;;
1106;SDS011;540;49.448;8.612;2022-09-01T14:12:26;2.65;;;2.45;;
1106;SDS011;540;49.448;8.612;2022-09-01T14:14:57;3.47;;;2.35;;
1106;SDS011;540;49.448;8.612;2022-09-01T14:17:44;4.03;;;2.30;;
1106;SDS011;540;49.448;8.612;2022-09-01T14:20:14;2.97;;;2.10;;
1106;SDS011;540;49.448;8.612;2022-09-01T14:22:44;2.35;;;2.00;;
1106;SDS011;540;49.448;8.612;2022-09-01T14:25:13;2.00;;;1.75;;
1106;SDS011;540;49.448;8.612;2022-09-01T14:27:41;2.53;;;1.80;;
1106;SDS011;540;49.448;8.612;2022-09-01T14:30:14;5.43;;;2.00;;
1106;SDS011;540;49.448;8.612;2022-09-01T14:32:44;3.67;;;2.10;;
1106;SDS011;540;49.448;8.612;2022-09-01T14:35:13;3.33;;;2.28;;
1106;SDS011;540;49.448;8.612;2022-09-01T14:37:41;2.38;;;1.90;;
1106;SDS011;540;49.448;8.612;2022-09-01T14:40:11;3.70;;;2.22;;
1106;SDS011;540;49.448;8.612;2022-09-01T14:42:42;5.82;;;2.10;;
1106;SDS011;540;49.448;8.612;2022-09-01T14:45:15;2.88;;;2.40;;
1106;SDS011;540;49.448;8.612;2022-09-01T14:47:44;4.80;;;2.40;;
1106;SDS011;540;49.448;8.612;2022-09-01T14:50:13;4.75;;;2.10;;
1106;SDS011;540;49.448;8.612;2022-09-01T14:52:48;4.05;;;2.40;;
1106;SDS011;540;49.448;8.612;2022-09-01T14:55:19;3.47;;;2.60;;
1106;SDS011;540;49.448;8.612;2022-09-01T14:57:47;3.33;;;3.03;;
1106;SDS011;540;49.448;8.612;2022-09-01T15:00:17;2.78;;;2.35;;
1106;SDS011;540;49.448;8.612;2022-09-01T15:02:45;3.50;;;2.20;;
1106;SDS011;540;49.448;8.612;2022-09-01T15:05:14;3.65;;;1.98;;
1106;SDS011;540;49.448;8.612;2022-09-01T15:07:42;2.85;;;1.98;;
1106;SDS011;540;49.448;8.612;2022-09-01T15:10:11;2.40;;;2.00;;
1106;SDS011;540;49.448;8.612;2022-09-01T15:12:50;6.97;;;2.15;;
1106;SDS011;540;49.448;8.612;2022-09-01T15:15:19;2.25;;;2.00;;
1106;SDS011;540;49.448;8.612;2022-09-01T15:17:48;2.35;;;2.05;;
1106;SDS011;540;49.448;8.612;2022-09-01T15:20:16;4.13;;;2.40;;
1106;SDS011;540;49.448;8.612;2022-09-01T15:23:01;3.05;;;2.50;;
1106;SDS011;540;49.448;8.612;2022-09-01T15:25:29;4.45;;;3.00;;
1106;SDS011;540;49.448;8.612;2022-09-01T15:27:57;4.07;;;2.88;;
1106;SDS011;540;49.448;8.612;2022-09-01T15:30:26;4.68;;;2.80;;
1106;SDS011;540;49.448;8.612;2022-09-01T15:32:54;2.38;;;2.00;;
1106;SDS011;540;49.448;8.612;2022-09-01T15:35:22;2.70;;;2.50;;
1106;SDS011;540;49.448;8.612;2022-09-01T15:37:50;3.85;;;2.42;;
1106;SDS011;540;49.448;8.612;2022-09-01T15:40:18;3.90;;;2.50;;
1106;SDS011;540;49.448;8.612;2022-09-01T15:42:46;4.70;;;2.25;;
1106;SDS011;540;49.448;8.612;2022-09-01T15:45:15;3.72;;;2.33;;
1106;SDS011;540;49.448;8.612;2022-09-01T15:47:46;3.15;;;2.13;;
1106;SDS011;540;49.448;8.612;2022-09-01T15:50:17;3.58;;;2.55;;
1106;SDS011;540;49.448;8.612;2022-09-01T15:52:48;4.75;;;2.40;;
1106;SDS011;540;49.448;8.612;2022-09-01T15:55:18;8.65;;;2.20;;
1106;SDS011;540;49.448;8.612;2022-09-01T15:57:48;3.38;;;1.73;;
1106;SDS011;540;49.448;8.612;2022-09-01T16:00:23;3.75;;;2.05;;
1106;SDS011;540;49.448;8.612;2022-09-01T16:02:53;3.67;;;2.50;;
1106;SDS011;540;49.448;8.612;2022-09-01T16:05:26;1.85;;;1.73;;
1106;SDS011;540;49.448;8.612;2022-09-01T16:07:54;4.70;;;2.35;;
1106;SDS011;540;49.448;8.612;2022-09-01T16:10:22;3.08;;;2.08;;
1106;SDS011;540;49.448;8.612;2022-09-01T16:12:50;2.65;;;2.28;;
1106;SDS011;540;49.448;8.612;2022-09-01T16:15:19;4.47;;;2.10;;
1106;SDS011;540;49.448;8.612;2022-09-01T16:17:53;3.05;;;2.33;;
1106;SDS011;540;49.448;8.612;2022-09-01T16:20:33;2.58;;;2.35;;
1106;SDS011;540;49.448;8.612;2022-09-01T16:23:07;2.90;;;2.20;;
1106;SDS011;540;49.448;8.612;2022-09-01T16:25:42;3.13;;;2.00;;
1106;SDS011;540;49.448;8.612;2022-09-01T16:28:13;2.38;;;2.05;;
1106;SDS011;540;49.448;8.612;2022-09-01T16:30:48;4.30;;;2.58;;